createdAt,value
2023-03-22T00:01:19.862Z,51.46
2023-03-22T00:03:48.540Z,51.62
2023-03-22T00:06:16.896Z,51.95
2023-03-22T00:08:45.066Z,51.72
2023-03-22T00:11:13.091Z,52.03
2023-03-22T00:13:43.090Z,51.92
2023-03-22T00:16:11.240Z,52.24
2023-03-22T00:18:38.400Z,52.54
2023-03-22T00:21:05.709Z,52.49
2023-03-22T00:23:32.805Z,52.80
2023-03-22T00:25:59.817Z,52.69
2023-03-22T00:28:27.336Z,52.88
2023-03-22T00:30:57.389Z,53.02
2023-03-22T00:33:24.743Z,53.03
2023-03-22T00:35:59.483Z,53.13
2023-03-22T00:38:42.066Z,53.01
2023-03-22T00:41:20.511Z,52.75
2023-03-22T00:43:49.164Z,53.17
2023-03-22T00:46:18.443Z,52.95
2023-03-22T00:48:46.035Z,52.73
2023-03-22T00:51:13.932Z,52.95
2023-03-22T00:53:43.319Z,53.14
2023-03-22T00:56:14.376Z,52.82
2023-03-22T00:58:42.842Z,52.90
2023-03-22T01:01:14.192Z,52.80
2023-03-22T01:03:43.372Z,52.80
2023-03-22T01:06:11.335Z,53.00
2023-03-22T01:08:39.247Z,52.67
2023-03-22T01:11:07.881Z,52.70
2023-03-22T01:13:37.908Z,52.55
2023-03-22T01:16:06.642Z,52.66
2023-03-22T01:18:34.144Z,52.48
2023-03-22T01:21:01.251Z,52.63
2023-03-22T01:23:28.513Z,52.63
2023-03-22T01:25:55.597Z,52.76
2023-03-22T01:28:23.335Z,52.74
2023-03-22T01:30:51.837Z,52.59
2023-03-22T01:33:18.876Z,52.77
2023-03-22T01:35:45.949Z,52.63
2023-03-22T01:38:13.209Z,53.00
2023-03-22T01:40:40.528Z,52.58
2023-03-22T01:43:17.396Z,52.80
2023-03-22T01:45:48.129Z,52.70
2023-03-22T01:48:36.708Z,52.77
2023-03-22T01:51:12.202Z,52.89
2023-03-22T01:53:48.334Z,53.31
2023-03-22T01:56:16.664Z,52.68
2023-03-22T01:58:43.653Z,52.90
2023-03-22T02:01:11.814Z,53.16
2023-03-22T02:04:07.315Z,53.07
2023-03-22T02:06:38.459Z,52.81
2023-03-22T02:09:08.337Z,53.19
2023-03-22T02:11:42.420Z,53.06
2023-03-22T02:14:38.918Z,53.24
2023-03-22T02:17:44.407Z,53.22
2023-03-22T02:20:38.498Z,53.24
2023-03-22T02:23:30.196Z,53.23
2023-03-22T02:26:33.901Z,53.26
2023-03-22T02:29:00.988Z,53.27
2023-03-22T02:31:30.858Z,53.32
2023-03-22T02:34:25.555Z,53.64
2023-03-22T02:37:04.665Z,53.47
2023-03-22T02:39:40.836Z,53.49
2023-03-22T02:42:07.803Z,53.35
2023-03-22T02:44:47.157Z,53.58
2023-03-22T02:47:39.015Z,53.63
2023-03-22T02:50:27.675Z,53.45
2023-03-22T02:53:10.074Z,53.65
2023-03-22T02:55:48.795Z,53.79
2023-03-22T02:58:21.631Z,53.72
2023-03-22T03:00:53.673Z,53.80
2023-03-22T03:03:25.660Z,53.94
2023-03-22T03:05:56.770Z,54.33
2023-03-22T03:08:25.273Z,54.94
2023-03-22T03:10:54.432Z,54.52
2023-03-22T03:13:21.561Z,54.85
2023-03-22T03:15:59.359Z,54.91
2023-03-22T03:18:29.885Z,55.64
2023-03-22T03:21:25.085Z,55.51
2023-03-22T03:24:19.632Z,55.47
2023-03-22T03:27:17.133Z,55.66
2023-03-22T03:29:50.376Z,55.68
2023-03-22T03:32:25.834Z,55.80
2023-03-22T03:35:05.648Z,56.10
2023-03-22T03:38:02.447Z,56.09
2023-03-22T03:40:33.248Z,55.93
2023-03-22T03:43:03.723Z,55.79
2023-03-22T03:45:31.569Z,55.82
2023-03-22T03:48:02.007Z,55.76
2023-03-22T03:50:29.504Z,55.69
2023-03-22T03:52:56.876Z,55.41
2023-03-22T03:55:25.033Z,55.51
2023-03-22T03:57:52.160Z,55.64
2023-03-22T04:00:19.476Z,55.22
2023-03-22T04:02:46.543Z,55.08
2023-03-22T04:05:14.085Z,55.29
2023-03-22T04:07:41.337Z,54.78
2023-03-22T04:10:09.036Z,54.94
2023-03-22T04:12:36.514Z,54.78
2023-03-22T04:15:03.567Z,54.69
2023-03-22T04:17:32.369Z,54.44
2023-03-22T04:19:59.376Z,54.27
2023-03-22T04:22:26.826Z,54.07
2023-03-22T04:24:54.048Z,53.70
2023-03-22T04:27:22.637Z,53.50
2023-03-22T04:29:51.206Z,53.36
2023-03-22T04:32:19.412Z,53.01
2023-03-22T04:34:46.713Z,53.01
2023-03-22T04:37:15.250Z,52.80
2023-03-22T04:39:42.993Z,52.77
2023-03-22T04:42:10.507Z,52.49
2023-03-22T04:44:37.551Z,52.37
2023-03-22T04:47:10.318Z,52.69
2023-03-22T04:49:37.545Z,52.64
2023-03-22T04:52:04.636Z,52.48
2023-03-22T04:54:31.673Z,53.07
2023-03-22T04:56:58.718Z,52.76
2023-03-22T04:59:25.792Z,52.76
2023-03-22T05:01:52.897Z,52.64
2023-03-22T05:04:20.925Z,52.57
2023-03-22T05:06:48.353Z,52.55
2023-03-22T05:09:15.618Z,52.44
2023-03-22T05:11:43.336Z,52.61
2023-03-22T05:14:11.058Z,52.82
2023-03-22T05:16:40.865Z,52.68
2023-03-22T05:19:14.207Z,52.45
2023-03-22T05:21:44.273Z,51.40
2023-03-22T05:24:11.880Z,51.55
2023-03-22T05:26:42.383Z,50.20
2023-03-22T05:29:13.745Z,47.64
2023-03-22T05:31:40.710Z,45.12
2023-03-22T05:34:08.326Z,43.58
2023-03-22T05:36:36.794Z,42.87
2023-03-22T05:39:04.158Z,42.08
2023-03-22T05:41:36.372Z,41.01
2023-03-22T05:44:04.687Z,40.44
2023-03-22T05:46:31.683Z,38.51
2023-03-22T05:48:58.620Z,37.57
2023-03-22T05:51:25.880Z,36.62
2023-03-22T05:53:56.406Z,36.54
2023-03-22T05:56:24.740Z,36.39
2023-03-22T05:58:52.186Z,35.33
2023-03-22T06:01:21.622Z,34.10
2023-03-22T06:03:49.352Z,34.57
2023-03-22T06:06:16.438Z,32.47
2023-03-22T06:08:43.862Z,31.03
2023-03-22T06:11:11.243Z,27.92
2023-03-22T06:13:38.419Z,24.62
2023-03-22T06:16:06.197Z,21.69
2023-03-22T06:18:33.672Z,17.96
2023-03-22T06:21:00.954Z,16.07
2023-03-22T06:23:28.537Z,14.87
2023-03-22T06:25:55.739Z,14.94
2023-03-22T06:28:22.774Z,14.27
2023-03-22T06:30:49.851Z,14.42
2023-03-22T06:33:17.287Z,14.43
2023-03-22T06:35:44.322Z,13.80
2023-03-22T06:38:11.291Z,12.75
2023-03-22T06:40:38.568Z,12.77
2023-03-22T06:43:07.229Z,12.07
2023-03-22T06:45:36.181Z,10.86
2023-03-22T06:48:03.216Z,10.14
2023-03-22T06:50:30.289Z,9.53
2023-03-22T06:52:57.387Z,9.00
2023-03-22T06:55:24.595Z,8.96
2023-03-22T06:57:51.574Z,8.55
2023-03-22T07:00:18.988Z,7.92
2023-03-22T07:02:46.194Z,7.59
2023-03-22T07:05:14.769Z,7.68
2023-03-22T07:07:41.875Z,7.47
2023-03-22T07:10:09.233Z,7.48
2023-03-22T07:12:36.486Z,6.98
2023-03-22T07:15:04.004Z,6.80
2023-03-22T07:17:31.457Z,6.98
2023-03-22T07:19:58.489Z,6.40
2023-03-22T07:22:26.072Z,6.45
2023-03-22T07:24:57.713Z,6.02
2023-03-22T07:27:25.543Z,6.33
2023-03-22T07:29:52.802Z,6.08
2023-03-22T07:32:19.923Z,5.71
2023-03-22T07:34:47.237Z,5.31
2023-03-22T07:37:15.133Z,5.25
2023-03-22T07:39:42.216Z,5.24
2023-03-22T07:42:09.714Z,4.30
2023-03-22T07:44:36.852Z,4.79
2023-03-22T07:47:04.140Z,4.98
2023-03-22T07:49:31.882Z,4.32
2023-03-22T07:51:58.933Z,4.71
2023-03-22T07:54:33.515Z,4.28
2023-03-22T07:57:01.520Z,4.28
2023-03-22T07:59:28.765Z,4.17
2023-03-22T08:01:55.909Z,4.12
2023-03-22T08:04:23.243Z,4.47
2023-03-22T08:06:51.822Z,4.15
2023-03-22T08:09:18.803Z,4.12
2023-03-22T08:11:45.992Z,3.90
2023-03-22T08:14:13.338Z,4.40
2023-03-22T08:16:41.822Z,4.04
2023-03-22T08:19:08.881Z,3.81
2023-03-22T08:21:36.387Z,3.94
2023-03-22T08:24:04.447Z,3.88
2023-03-22T08:26:31.534Z,3.36
2023-03-22T08:28:58.505Z,3.33
2023-03-22T08:31:26.526Z,3.98
2023-03-22T08:33:53.640Z,3.48
2023-03-22T08:36:25.176Z,3.54
2023-03-22T08:38:53.383Z,3.34
2023-03-22T08:41:20.412Z,3.25
2023-03-22T08:43:47.417Z,3.22
2023-03-22T08:46:14.476Z,3.78
2023-03-22T08:48:41.848Z,3.57
2023-03-22T08:51:09.173Z,3.58
2023-03-22T08:53:36.182Z,3.63
2023-03-22T08:56:03.974Z,3.05
2023-03-22T08:58:31.323Z,3.55
2023-03-22T09:00:58.534Z,3.75
2023-03-22T09:03:25.884Z,3.07
2023-03-22T09:05:53.112Z,2.97
2023-03-22T09:08:20.627Z,2.76
2023-03-22T09:10:51.712Z,3.24
2023-03-22T09:13:19.792Z,3.87
2023-03-22T09:15:47.542Z,3.12
2023-03-22T09:18:15.186Z,3.00
2023-03-22T09:20:43.895Z,3.29
2023-03-22T09:23:10.902Z,3.23
2023-03-22T09:25:38.203Z,3.29
2023-03-22T09:28:05.868Z,3.53
2023-03-22T09:30:32.959Z,3.15
2023-03-22T09:32:59.918Z,3.60
2023-03-22T09:35:27.010Z,2.93
2023-03-22T09:37:54.787Z,3.38
2023-03-22T09:40:32.308Z,3.25
2023-03-22T09:43:06.484Z,3.69
2023-03-22T09:45:39.820Z,4.11
2023-03-22T09:48:38.473Z,4.03
2023-03-22T09:51:20.099Z,3.63
2023-03-22T09:53:47.189Z,3.68
2023-03-22T09:56:21.147Z,3.44
2023-03-22T09:58:57.796Z,3.84
2023-03-22T10:01:24.947Z,3.97
2023-03-22T10:04:18.072Z,3.99
2023-03-22T10:06:51.570Z,4.33
2023-03-22T10:09:27.306Z,4.17
2023-03-22T10:12:01.204Z,4.30
2023-03-22T10:14:36.086Z,3.76
2023-03-22T10:17:08.742Z,3.95
2023-03-22T10:19:40.399Z,3.56
2023-03-22T10:22:12.821Z,3.40
2023-03-22T10:24:44.575Z,3.69
2023-03-22T10:27:20.161Z,3.77
2023-03-22T10:30:08.500Z,4.20
2023-03-22T10:33:00.814Z,3.77
2023-03-22T10:35:28.653Z,3.97
2023-03-22T10:38:02.336Z,3.80
2023-03-22T10:40:32.959Z,4.12
2023-03-22T10:43:30.540Z,4.26
2023-03-22T10:45:59.121Z,4.35
2023-03-22T10:48:33.820Z,4.26
2023-03-22T10:51:01.439Z,3.94
2023-03-22T10:53:41.595Z,4.23
2023-03-22T10:56:18.963Z,4.09
2023-03-22T10:58:49.974Z,4.35
2023-03-22T11:01:30.225Z,4.07
2023-03-22T11:04:00.463Z,4.41
2023-03-22T11:06:30.194Z,4.04
2023-03-22T11:09:12.011Z,4.01
2023-03-22T11:11:50.012Z,4.13
2023-03-22T11:14:22.978Z,3.90
2023-03-22T11:17:01.208Z,4.22
2023-03-22T11:19:39.771Z,3.94
2023-03-22T11:22:22.976Z,4.16
2023-03-22T11:24:51.960Z,4.15
2023-03-22T11:27:28.922Z,3.98
2023-03-22T11:30:08.454Z,4.69
2023-03-22T11:32:40.132Z,4.41
2023-03-22T11:35:21.116Z,4.79
2023-03-22T11:37:51.166Z,4.66
2023-03-22T11:40:27.048Z,5.29
2023-03-22T11:43:16.390Z,5.24
2023-03-22T11:45:44.995Z,5.02
2023-03-22T11:48:19.233Z,5.24
2023-03-22T11:50:47.304Z,5.54
2023-03-22T11:53:18.257Z,5.01
2023-03-22T11:55:48.249Z,5.95
2023-03-22T11:58:28.373Z,5.44
2023-03-22T12:00:59.874Z,5.94
2023-03-22T12:03:31.498Z,5.61
2023-03-22T12:06:06.036Z,6.14
2023-03-22T12:08:52.739Z,6.13
2023-03-22T12:11:28.210Z,7.21
2023-03-22T12:14:00.371Z,7.85
2023-03-22T12:16:53.908Z,8.89
2023-03-22T12:19:36.895Z,9.71
2023-03-22T12:22:11.410Z,10.60
2023-03-22T12:24:38.699Z,11.59
2023-03-22T12:27:17.867Z,12.48
2023-03-22T12:29:59.420Z,13.50
2023-03-22T12:32:34.340Z,14.13
2023-03-22T12:35:18.286Z,14.97
2023-03-22T12:37:52.022Z,15.82
2023-03-22T12:40:42.369Z,16.32
2023-03-22T12:43:18.362Z,17.27
2023-03-22T12:45:56.288Z,17.83
2023-03-22T12:48:29.324Z,18.63
2023-03-22T12:51:05.786Z,18.38
2023-03-22T12:53:42.745Z,19.29
2023-03-22T12:56:12.879Z,19.46
2023-03-22T12:58:40.027Z,20.00
2023-03-22T13:01:23.728Z,20.72
2023-03-22T13:03:53.930Z,20.79
2023-03-22T13:06:35.378Z,21.13
2023-03-22T13:09:17.021Z,21.19
2023-03-22T13:11:49.768Z,21.24
2023-03-22T13:14:45.888Z,21.24
2023-03-22T13:17:13.651Z,21.28
2023-03-22T13:20:00.888Z,21.74
2023-03-22T13:22:51.180Z,22.05
2023-03-22T13:25:19.299Z,22.35
2023-03-22T13:27:46.267Z,22.27
2023-03-22T13:30:57.745Z,22.08
2023-03-22T13:33:29.047Z,22.60
2023-03-22T13:36:25.950Z,22.88
2023-03-22T13:39:05.112Z,23.04
2023-03-22T13:41:35.155Z,23.17
2023-03-22T13:44:19.416Z,23.19
2023-03-22T13:46:53.923Z,23.65
2023-03-22T13:49:42.400Z,23.81
2023-03-22T13:52:22.565Z,23.88
2023-03-22T13:54:52.744Z,23.76
2023-03-22T13:57:45.880Z,24.27
2023-03-22T14:00:22.461Z,24.16
2023-03-22T14:02:50.845Z,24.35
2023-03-22T14:05:22.502Z,24.28
2023-03-22T14:07:58.293Z,24.78
2023-03-22T14:10:28.688Z,24.61
2023-03-22T14:13:02.686Z,25.03
2023-03-22T14:15:34.705Z,24.95
2023-03-22T14:18:08.514Z,24.82
2023-03-22T14:20:38.863Z,25.16
